ABL352 RKPC-RKPK
Flight info
| Callsign | ABL352 |
|---|---|
| Flight time | 0h 39m |
| Altitude | 19000 |
| Route | AKPON1E AKPON Y571 ANROD KEVOX3 |
| Aircraft | A320/M-SDE3FGHIRWY/LB1 |
Departure
| Time | 2026-04-29 06:03 |
|---|---|
| Airport | Jeju International Airport (RKPC) |
Arrival
| Time | 2026-04-29 06:42 |
|---|---|
| Airport | Gimhae International Airport (RKPK) |
| Time | Latitude | Longitude | Altitude | Speed | Heading |
|---|---|---|---|---|---|
| 2026-04-29 05:45 | 33.50671 | 126.49120 | 90 ft | 0 kts | 152° |
| 2026-04-29 05:53 | 33.50674 | 126.49118 | 90 ft | 2 kts | 152° |
| 2026-04-29 05:53 | 33.50689 | 126.49108 | 92 ft | 3 kts | 152° |
| 2026-04-29 05:53 | 33.50707 | 126.49097 | 90 ft | 3 kts | 152° |
| 2026-04-29 05:54 | 33.50724 | 126.49086 | 90 ft | 3 kts | 152° |
| 2026-04-29 05:54 | 33.50742 | 126.49077 | 90 ft | 3 kts | 178° |
| 2026-04-29 05:54 | 33.50759 | 126.49081 | 93 ft | 3 kts | 216° |
| 2026-04-29 05:54 | 33.50773 | 126.49097 | 92 ft | 3 kts | 236° |
| 2026-04-29 05:55 | 33.50782 | 126.49113 | 91 ft | 1 kts | 238° |
| 2026-04-29 05:55 | 33.50783 | 126.49114 | 91 ft | 1 kts | 238° |
| 2026-04-29 05:56 | 33.50771 | 126.49092 | 92 ft | 5 kts | 239° |
| 2026-04-29 05:57 | 33.50745 | 126.49040 | 89 ft | 9 kts | 238° |
| 2026-04-29 05:57 | 33.50707 | 126.48967 | 91 ft | 11 kts | 240° |
| 2026-04-29 05:57 | 33.50740 | 126.48890 | 93 ft | 12 kts | 331° |
| 2026-04-29 05:57 | 33.50803 | 126.48814 | 89 ft | 14 kts | 275° |
| 2026-04-29 05:58 | 33.50755 | 126.48711 | 91 ft | 16 kts | 238° |
| 2026-04-29 05:58 | 33.50691 | 126.48585 | 90 ft | 19 kts | 238° |
| 2026-04-29 05:58 | 33.50619 | 126.48446 | 92 ft | 21 kts | 237° |
| 2026-04-29 05:58 | 33.50540 | 126.48293 | 93 ft | 22 kts | 238° |
| 2026-04-29 05:59 | 33.50456 | 126.48129 | 92 ft | 24 kts | 239° |
| 2026-04-29 05:59 | 33.50365 | 126.47950 | 93 ft | 26 kts | 238° |
| 2026-04-29 05:59 | 33.50268 | 126.47761 | 94 ft | 26 kts | 238° |
| 2026-04-29 05:59 | 33.50248 | 126.47722 | 95 ft | 19 kts | 238° |
| 2026-04-29 06:00 | 33.50236 | 126.47699 | 94 ft | 19 kts | 238° |
| 2026-04-29 06:00 | 33.50164 | 126.47557 | 95 ft | 21 kts | 239° |
| 2026-04-29 06:00 | 33.50083 | 126.47403 | 96 ft | 23 kts | 238° |
| 2026-04-29 06:01 | 33.50040 | 126.47270 | 97 ft | 10 kts | 316° |
| 2026-04-29 06:01 | 33.50111 | 126.47234 | 98 ft | 12 kts | 356° |
| 2026-04-29 06:01 | 33.50190 | 126.47238 | 96 ft | 8 kts | 29° |
| 2026-04-29 06:01 | 33.50206 | 126.47263 | 96 ft | 0 kts | 58° |
| 2026-04-29 06:02 | 33.50305 | 126.47456 | 97 ft | 62 kts | 58° |
| 2026-04-29 06:02 | 33.50641 | 126.48110 | 94 ft | 121 kts | 58° |
| 2026-04-29 06:02 | 33.51167 | 126.49138 | 143 ft | 161 kts | 58° |
| 2026-04-29 06:02 | 33.51758 | 126.50275 | 675 ft | 162 kts | 58° |
| 2026-04-29 06:03 | 33.52348 | 126.51422 | 1265 ft | 162 kts | 58° |
| 2026-04-29 06:03 | 33.52943 | 126.52583 | 1789 ft | 167 kts | 58° |
| 2026-04-29 06:03 | 33.53581 | 126.53827 | 2167 ft | 183 kts | 59° |
| 2026-04-29 06:03 | 33.54275 | 126.55188 | 2571 ft | 199 kts | 59° |
| 2026-04-29 06:04 | 33.55032 | 126.56668 | 2930 ft | 218 kts | 58° |
| 2026-04-29 06:04 | 33.55858 | 126.58282 | 3417 ft | 235 kts | 58° |
| 2026-04-29 06:04 | 33.56738 | 126.59999 | 3953 ft | 253 kts | 58° |
| 2026-04-29 06:04 | 33.57687 | 126.61852 | 4558 ft | 268 kts | 58° |
| 2026-04-29 06:05 | 33.58683 | 126.63791 | 5377 ft | 274 kts | 58° |
| 2026-04-29 06:05 | 33.59687 | 126.65749 | 6262 ft | 278 kts | 58° |
| 2026-04-29 06:05 | 33.60706 | 126.67741 | 7124 ft | 281 kts | 58° |
| 2026-04-29 06:05 | 33.61387 | 126.69074 | 7685 ft | 283 kts | 58° |
| 2026-04-29 06:06 | 33.62766 | 126.71768 | 8777 ft | 288 kts | 58° |
| 2026-04-29 06:06 | 33.63816 | 126.73845 | 9568 ft | 292 kts | 62° |
| 2026-04-29 06:06 | 33.64546 | 126.76131 | 10248 ft | 299 kts | 74° |
| 2026-04-29 06:06 | 33.64941 | 126.77750 | 10523 ft | 310 kts | 74° |
| 2026-04-29 06:07 | 33.65757 | 126.81184 | 11012 ft | 333 kts | 74° |
| 2026-04-29 06:07 | 33.66404 | 126.83929 | 11339 ft | 349 kts | 74° |
| 2026-04-29 06:07 | 33.66849 | 126.85813 | 11665 ft | 356 kts | 74° |
| 2026-04-29 06:07 | 33.67761 | 126.89665 | 12549 ft | 361 kts | 74° |
| 2026-04-29 06:08 | 33.68218 | 126.91589 | 12989 ft | 363 kts | 74° |
| 2026-04-29 06:08 | 33.68914 | 126.94516 | 13636 ft | 367 kts | 74° |
| 2026-04-29 06:08 | 33.69620 | 126.97477 | 14273 ft | 370 kts | 74° |
| 2026-04-29 06:08 | 33.70331 | 127.00465 | 14872 ft | 373 kts | 74° |
| 2026-04-29 06:09 | 33.71047 | 127.03482 | 15472 ft | 377 kts | 74° |
| 2026-04-29 06:09 | 33.71768 | 127.06526 | 16051 ft | 380 kts | 74° |
| 2026-04-29 06:09 | 33.72492 | 127.09591 | 16604 ft | 383 kts | 74° |
| 2026-04-29 06:09 | 33.73224 | 127.12687 | 17185 ft | 386 kts | 74° |
| 2026-04-29 06:10 | 33.73966 | 127.15815 | 17756 ft | 390 kts | 74° |
| 2026-04-29 06:10 | 33.74703 | 127.18925 | 18318 ft | 393 kts | 74° |
| 2026-04-29 06:10 | 33.75454 | 127.22100 | 18734 ft | 396 kts | 74° |
| 2026-04-29 06:10 | 33.76206 | 127.25292 | 18843 ft | 402 kts | 74° |
| 2026-04-29 06:11 | 33.76988 | 127.28607 | 18856 ft | 420 kts | 73° |
| 2026-04-29 06:11 | 33.78046 | 127.31942 | 18854 ft | 430 kts | 64° |
| 2026-04-29 06:11 | 33.79566 | 127.35042 | 18856 ft | 430 kts | 54° |
| 2026-04-29 06:11 | 33.81456 | 127.37773 | 18854 ft | 430 kts | 48° |
| 2026-04-29 06:12 | 33.83461 | 127.40448 | 18870 ft | 430 kts | 48° |
| 2026-04-29 06:12 | 33.85459 | 127.43124 | 19007 ft | 431 kts | 48° |
| 2026-04-29 06:12 | 33.87464 | 127.45819 | 19009 ft | 430 kts | 48° |
| 2026-04-29 06:12 | 33.89461 | 127.48513 | 19009 ft | 430 kts | 48° |
| 2026-04-29 06:13 | 33.91456 | 127.51212 | 19009 ft | 430 kts | 48° |
| 2026-04-29 06:13 | 33.93442 | 127.53902 | 19009 ft | 430 kts | 48° |
| 2026-04-29 06:13 | 33.95431 | 127.56602 | 19010 ft | 430 kts | 48° |
| 2026-04-29 06:13 | 33.97418 | 127.59293 | 19011 ft | 430 kts | 48° |
| 2026-04-29 06:14 | 33.99379 | 127.61955 | 19011 ft | 430 kts | 48° |
| 2026-04-29 06:14 | 34.01363 | 127.64649 | 19008 ft | 430 kts | 48° |
| 2026-04-29 06:14 | 34.03352 | 127.67353 | 19010 ft | 430 kts | 48° |
| 2026-04-29 06:14 | 34.05335 | 127.70055 | 19011 ft | 430 kts | 49° |
| 2026-04-29 06:15 | 34.07317 | 127.72757 | 19010 ft | 430 kts | 49° |
| 2026-04-29 06:15 | 34.09299 | 127.75459 | 19014 ft | 430 kts | 48° |
| 2026-04-29 06:15 | 34.11284 | 127.78162 | 19018 ft | 430 kts | 49° |
| 2026-04-29 06:15 | 34.13265 | 127.80863 | 19018 ft | 430 kts | 49° |
| 2026-04-29 06:16 | 34.15245 | 127.83566 | 19016 ft | 430 kts | 49° |
| 2026-04-29 06:16 | 34.17224 | 127.86270 | 19013 ft | 430 kts | 49° |
| 2026-04-29 06:16 | 34.19207 | 127.88979 | 19012 ft | 430 kts | 49° |
| 2026-04-29 06:16 | 34.21188 | 127.91686 | 19016 ft | 430 kts | 49° |
| 2026-04-29 06:17 | 34.23167 | 127.94397 | 19019 ft | 430 kts | 49° |
| 2026-04-29 06:17 | 34.25145 | 127.97107 | 19018 ft | 430 kts | 49° |
| 2026-04-29 06:17 | 34.27122 | 127.99813 | 19015 ft | 430 kts | 49° |
| 2026-04-29 06:17 | 34.29099 | 128.02526 | 19018 ft | 430 kts | 49° |
| 2026-04-29 06:18 | 34.31073 | 128.05244 | 19018 ft | 430 kts | 49° |
| 2026-04-29 06:18 | 34.33047 | 128.07964 | 19019 ft | 430 kts | 49° |
| 2026-04-29 06:18 | 34.35022 | 128.10679 | 19019 ft | 430 kts | 49° |
| 2026-04-29 06:18 | 34.36997 | 128.13394 | 19021 ft | 430 kts | 49° |
| 2026-04-29 06:19 | 34.38975 | 128.16117 | 19021 ft | 430 kts | 49° |
| 2026-04-29 06:19 | 34.40951 | 128.18842 | 19018 ft | 430 kts | 49° |
| 2026-04-29 06:19 | 34.42924 | 128.21563 | 19019 ft | 430 kts | 49° |
| 2026-04-29 06:19 | 34.44894 | 128.24283 | 19017 ft | 430 kts | 49° |
| 2026-04-29 06:20 | 34.46866 | 128.27008 | 19020 ft | 430 kts | 49° |
| 2026-04-29 06:20 | 34.48838 | 128.29734 | 19019 ft | 430 kts | 49° |
| 2026-04-29 06:20 | 34.50809 | 128.32460 | 19021 ft | 430 kts | 49° |
| 2026-04-29 06:20 | 34.52726 | 128.35113 | 19007 ft | 414 kts | 49° |
| 2026-04-29 06:21 | 34.54585 | 128.37687 | 19008 ft | 396 kts | 49° |
| 2026-04-29 06:21 | 34.56391 | 128.40191 | 19010 ft | 395 kts | 49° |
| 2026-04-29 06:21 | 34.58205 | 128.42712 | 19009 ft | 396 kts | 49° |
| 2026-04-29 06:21 | 34.60016 | 128.45230 | 19009 ft | 396 kts | 49° |
| 2026-04-29 06:22 | 34.61898 | 128.47676 | 19011 ft | 396 kts | 41° |
| 2026-04-29 06:22 | 34.64119 | 128.49649 | 19009 ft | 396 kts | 29° |
| 2026-04-29 06:22 | 34.66623 | 128.51018 | 19009 ft | 395 kts | 18° |
| 2026-04-29 06:22 | 34.69257 | 128.51982 | 19008 ft | 396 kts | 16° |
| 2026-04-29 06:23 | 34.71901 | 128.52944 | 19009 ft | 396 kts | 17° |
| 2026-04-29 06:23 | 34.74534 | 128.53909 | 19008 ft | 396 kts | 17° |
| 2026-04-29 06:23 | 34.77168 | 128.54880 | 19008 ft | 396 kts | 17° |
| 2026-04-29 06:23 | 34.79801 | 128.55853 | 19008 ft | 395 kts | 17° |
| 2026-04-29 06:24 | 34.82435 | 128.56830 | 19007 ft | 396 kts | 17° |
| 2026-04-29 06:24 | 34.85068 | 128.57804 | 19007 ft | 396 kts | 17° |
| 2026-04-29 06:24 | 34.87692 | 128.58810 | 19007 ft | 395 kts | 21° |
| 2026-04-29 06:24 | 34.90092 | 128.60421 | 19004 ft | 395 kts | 38° |
| 2026-04-29 06:25 | 34.92157 | 128.62636 | 19000 ft | 396 kts | 42° |
| 2026-04-29 06:25 | 34.94193 | 128.64900 | 19002 ft | 396 kts | 42° |
| 2026-04-29 06:25 | 34.96223 | 128.67164 | 19004 ft | 396 kts | 42° |
| 2026-04-29 06:25 | 34.96910 | 128.67931 | 19004 ft | 396 kts | 42° |
| 2026-04-29 06:26 | 34.99018 | 128.70319 | 18957 ft | 388 kts | 46° |
| 2026-04-29 06:26 | 35.00438 | 128.72931 | 18836 ft | 358 kts | 70° |
| 2026-04-29 06:26 | 35.00896 | 128.75808 | 18475 ft | 340 kts | 92° |
| 2026-04-29 06:26 | 35.00706 | 128.77679 | 18063 ft | 334 kts | 102° |
| 2026-04-29 06:27 | 35.00190 | 128.80362 | 17305 ft | 331 kts | 103° |
| 2026-04-29 06:27 | 34.99686 | 128.83089 | 16572 ft | 328 kts | 102° |
| 2026-04-29 06:27 | 34.99215 | 128.85824 | 15695 ft | 330 kts | 102° |
| 2026-04-29 06:27 | 34.98679 | 128.88542 | 14906 ft | 328 kts | 113° |
| 2026-04-29 06:28 | 34.97473 | 128.90759 | 14730 ft | 304 kts | 139° |
| 2026-04-29 06:28 | 34.95750 | 128.92034 | 14603 ft | 280 kts | 164° |
| 2026-04-29 06:28 | 34.93905 | 128.92551 | 14309 ft | 267 kts | 170° |
| 2026-04-29 06:28 | 34.92084 | 128.92926 | 13815 ft | 264 kts | 171° |
| 2026-04-29 06:29 | 34.90277 | 128.93279 | 13314 ft | 262 kts | 171° |
| 2026-04-29 06:29 | 34.88484 | 128.93626 | 12803 ft | 260 kts | 171° |
| 2026-04-29 06:29 | 34.86708 | 128.93969 | 12298 ft | 257 kts | 171° |
| 2026-04-29 06:29 | 34.85011 | 128.94584 | 11798 ft | 254 kts | 150° |
| 2026-04-29 06:30 | 34.83684 | 128.95962 | 11293 ft | 252 kts | 125° |
| 2026-04-29 06:30 | 34.82987 | 128.99943 | 10262 ft | 247 kts | 75° |
| 2026-04-29 06:30 | 34.83699 | 129.01822 | 9741 ft | 245 kts | 51° |
| 2026-04-29 06:31 | 34.84968 | 129.03165 | 9214 ft | 242 kts | 26° |
| 2026-04-29 06:31 | 34.86564 | 129.03759 | 8686 ft | 239 kts | 2° |
| 2026-04-29 06:31 | 34.88197 | 129.03522 | 8150 ft | 236 kts | 339° |
| 2026-04-29 06:31 | 34.89730 | 129.02800 | 7595 ft | 236 kts | 338° |
| 2026-04-29 06:32 | 34.91258 | 129.02082 | 7087 ft | 234 kts | 338° |
| 2026-04-29 06:32 | 34.92757 | 129.01381 | 6595 ft | 232 kts | 338° |
| 2026-04-29 06:32 | 34.94262 | 129.00682 | 6088 ft | 230 kts | 338° |
| 2026-04-29 06:32 | 34.95751 | 128.99990 | 5599 ft | 228 kts | 338° |
| 2026-04-29 06:33 | 34.97228 | 128.99305 | 5105 ft | 226 kts | 338° |
| 2026-04-29 06:33 | 34.98692 | 128.98625 | 4610 ft | 224 kts | 338° |
| 2026-04-29 06:33 | 35.00140 | 128.97949 | 4129 ft | 222 kts | 338° |
| 2026-04-29 06:33 | 35.01579 | 128.97275 | 3642 ft | 220 kts | 338° |
| 2026-04-29 06:34 | 35.03005 | 128.96609 | 3165 ft | 219 kts | 338° |
| 2026-04-29 06:34 | 35.04424 | 128.95946 | 3011 ft | 219 kts | 338° |
| 2026-04-29 06:34 | 35.05857 | 128.95301 | 3014 ft | 219 kts | 345° |
| 2026-04-29 06:34 | 35.07369 | 128.95041 | 3017 ft | 220 kts | 353° |
| 2026-04-29 06:35 | 35.08887 | 128.94850 | 3017 ft | 219 kts | 353° |
| 2026-04-29 06:35 | 35.10399 | 128.94661 | 3018 ft | 219 kts | 353° |
| 2026-04-29 06:35 | 35.11913 | 128.94470 | 3013 ft | 219 kts | 353° |
| 2026-04-29 06:35 | 35.13378 | 128.94042 | 3024 ft | 218 kts | 329° |
| 2026-04-29 06:36 | 35.14416 | 128.92752 | 3011 ft | 215 kts | 293° |
| 2026-04-29 06:36 | 35.14650 | 128.90982 | 3011 ft | 214 kts | 258° |
| 2026-04-29 06:36 | 35.14015 | 128.89398 | 3014 ft | 213 kts | 223° |
| 2026-04-29 06:36 | 35.12735 | 128.88544 | 3009 ft | 214 kts | 188° |
| 2026-04-29 06:37 | 35.11246 | 128.88558 | 3011 ft | 215 kts | 174° |
| 2026-04-29 06:37 | 35.09758 | 128.88808 | 3017 ft | 215 kts | 172° |
| 2026-04-29 06:37 | 35.08277 | 128.89093 | 3014 ft | 215 kts | 171° |
| 2026-04-29 06:37 | 35.06797 | 128.89384 | 3015 ft | 215 kts | 171° |
| 2026-04-29 06:38 | 35.05317 | 128.89696 | 2958 ft | 216 kts | 165° |
| 2026-04-29 06:38 | 35.04064 | 128.90601 | 2827 ft | 208 kts | 129° |
| 2026-04-29 06:38 | 35.03514 | 128.92154 | 2670 ft | 200 kts | 94° |
| 2026-04-29 06:38 | 35.03771 | 128.93779 | 2402 ft | 199 kts | 59° |
| 2026-04-29 06:39 | 35.04744 | 128.94952 | 2249 ft | 199 kts | 24° |
| 2026-04-29 06:39 | 35.06076 | 128.95237 | 2068 ft | 193 kts | 352° |
| 2026-04-29 06:39 | 35.07369 | 128.95058 | 1831 ft | 182 kts | 353° |
| 2026-04-29 06:39 | 35.08600 | 128.94900 | 1597 ft | 174 kts | 353° |
| 2026-04-29 06:40 | 35.09729 | 128.94757 | 1385 ft | 152 kts | 353° |
| 2026-04-29 06:40 | 35.10752 | 128.94626 | 1192 ft | 146 kts | 353° |
| 2026-04-29 06:40 | 35.11762 | 128.94496 | 995 ft | 146 kts | 353° |
| 2026-04-29 06:40 | 35.12769 | 128.94366 | 801 ft | 146 kts | 353° |
| 2026-04-29 06:41 | 35.13778 | 128.94237 | 625 ft | 146 kts | 354° |
| 2026-04-29 06:41 | 35.14787 | 128.94107 | 406 ft | 145 kts | 352° |
| 2026-04-29 06:41 | 35.15786 | 128.93977 | 223 ft | 144 kts | 352° |
| 2026-04-29 06:41 | 35.16771 | 128.93848 | 40 ft | 144 kts | 353° |
| 2026-04-29 06:42 | 35.17688 | 128.93729 | 27 ft | 105 kts | 353° |
| 2026-04-29 06:42 | 35.18179 | 128.93666 | 23 ft | 40 kts | 353° |
| 2026-04-29 06:42 | 35.18393 | 128.93690 | 22 ft | 30 kts | 24° |
| 2026-04-29 06:42 | 35.18539 | 128.93773 | 24 ft | 20 kts | 27° |
| 2026-04-29 06:43 | 35.18595 | 128.93916 | 23 ft | 20 kts | 84° |
| 2026-04-29 06:43 | 35.18607 | 128.94047 | 23 ft | 13 kts | 83° |
| 2026-04-29 06:43 | 35.18551 | 128.94119 | 27 ft | 14 kts | 170° |
| 2026-04-29 06:43 | 35.18439 | 128.94134 | 27 ft | 18 kts | 174° |
| 2026-04-29 06:44 | 35.18302 | 128.94151 | 23 ft | 21 kts | 174° |
| 2026-04-29 06:44 | 35.18146 | 128.94174 | 23 ft | 24 kts | 173° |
| 2026-04-29 06:44 | 35.17974 | 128.94196 | 23 ft | 26 kts | 182° |
| 2026-04-29 06:44 | 35.17812 | 128.94213 | 23 ft | 16 kts | 174° |
| 2026-04-29 06:45 | 35.17692 | 128.94229 | 24 ft | 19 kts | 174° |
| 2026-04-29 06:45 | 35.17550 | 128.94246 | 23 ft | 22 kts | 173° |
| 2026-04-29 06:45 | 35.17391 | 128.94267 | 23 ft | 24 kts | 174° |
| 2026-04-29 06:45 | 35.17253 | 128.94284 | 23 ft | 19 kts | 174° |
| 2026-04-29 06:46 | 35.17111 | 128.94302 | 26 ft | 22 kts | 174° |
| 2026-04-29 06:46 | 35.17007 | 128.94326 | 23 ft | 15 kts | 145° |
| 2026-04-29 06:46 | 35.16995 | 128.94451 | 26 ft | 17 kts | 83° |
| 2026-04-29 06:46 | 35.16975 | 128.94592 | 26 ft | 18 kts | 115° |
| 2026-04-29 06:47 | 35.16930 | 128.94715 | 24 ft | 13 kts | 114° |
| 2026-04-29 06:47 | 35.16936 | 128.94804 | 27 ft | 9 kts | 30° |
| 2026-04-29 06:47 | 35.16968 | 128.94819 | 25 ft | 1 kts | 23° |
| 2026-04-29 06:47 | 35.16975 | 128.94823 | 25 ft | 0 kts | 23° |